Time;durP1;ratioP1;P1;durP2;ratioP2;P2;SDS_P1;SDS_P2;PMS_P1;PMS_P2;Temp;Humidity;BMP_temperature;BMP_pressure;BME280_temperature;BME280_humidity;BME280_pressure;Samples;Min_cycle;Max_cycle;Signal;HPM_P1;HPM_P2
2023/04/21 00:00:55;;;;;;;58.58;21.65;;;;;;;7.81;87.14;99655.22;5009577;28;20045;-86
2023/04/21 00:03:26;;;;;;;55.28;22.27;;;;;;;7.81;87.51;99652.56;5000307;28;20053;-86
2023/04/21 00:06:00;;;;;;;55.90;20.88;;;;;;;7.64;87.45;99650.47;4996295;28;20621;-86
2023/04/21 00:08:27;;;;;;;;;;;;;;;7.53;88.08;99661.84;4997440;28;20462;-86
2023/04/21 00:10:53;;;;;;;52.25;20.83;;;;;;;7.64;87.61;99664.50;5013771;28;19933;-86
2023/04/21 00:13:20;;;;;;;50.40;18.23;;;;;;;7.68;87.33;99663.28;4970904;28;20475;-86
2023/04/21 00:15:47;;;;;;;42.20;19.35;;;;;;;7.61;86.94;99659.47;5007686;28;20068;-85
2023/04/21 00:18:14;;;;;;;48.00;18.83;;;;;;;7.60;86.98;99644.56;4987482;28;20038;-86
2023/04/21 00:20:41;;;;;;;48.50;19.10;;;;;;;7.63;86.97;99635.53;5021197;28;20396;-86
2023/04/21 00:23:09;;;;;;;46.55;18.55;;;;;;;7.63;86.89;99636.38;4998783;28;20046;-86
2023/04/21 00:25:36;;;;;;;41.08;16.55;;;;;;;7.60;87.02;99634.00;4985839;28;20793;-86
2023/04/21 00:28:03;;;;;;;46.38;18.40;;;;;;;7.72;87.18;99630.38;5016767;28;20190;-86
2023/04/21 00:30:30;;;;;;;56.22;19.27;;;;;;;7.74;86.81;99632.91;5003490;28;20037;-86
2023/04/21 00:32:56;;;;;;;54.03;18.77;;;;;;;7.53;87.99;99628.38;4986601;28;20055;-86
2023/04/21 00:35:23;;;;;;;47.78;18.92;;;;;;;7.57;87.44;99628.94;4980121;28;20182;-86
2023/04/21 00:37:50;;;;;;;52.50;18.83;;;;;;;7.52;88.00;99631.94;5016781;28;20042;-86
2023/04/21 00:40:17;;;;;;;47.85;19.67;;;;;;;7.52;87.24;99636.41;4996605;28;20056;-86
2023/04/21 00:42:44;;;;;;;42.10;18.25;;;;;;;7.54;86.75;99635.31;5016775;28;20045;-85
2023/04/21 00:45:10;;;;;;;43.22;17.60;;;;;;;7.51;86.59;99632.09;4966495;28;20042;-86
2023/04/21 00:47:37;;;;;;;46.30;17.77;;;;;;;7.50;86.35;99636.50;4984284;28;20080;-86
2023/04/21 00:50:05;;;;;;;43.90;17.67;;;;;;;7.48;86.19;99632.31;4978453;28;20533;-86
2023/04/21 00:52:32;;;;;;;57.00;19.23;;;;;;;7.49;86.39;99626.09;4996940;28;20059;-85
2023/04/21 00:55:00;;;;;;;43.65;18.75;;;;;;;7.46;86.79;99619.25;5000669;28;20045;-85
2023/04/21 00:57:27;;;;;;;48.83;18.83;;;;;;;7.43;86.73;99630.06;4998296;28;20076;-85
2023/04/21 00:59:54;;;;;;;42.88;19.98;;;;;;;7.43;86.86;99627.41;5013500;28;20126;-86
2023/04/21 01:02:23;;;;;;;47.20;19.70;;;;;;;7.48;86.76;99622.59;4995708;28;20076;-86
2023/04/21 01:04:50;;;;;;;46.50;19.75;;;;;;;7.41;87.27;99628.50;5001515;28;20049;-85
2023/04/21 01:07:17;;;;;;;44.38;17.90;;;;;;;7.48;86.97;99613.81;5004982;28;20045;-86
2023/04/21 01:09:43;;;;;;;46.63;18.25;;;;;;;7.45;87.23;99616.72;4992193;28;20045;-86
2023/04/21 01:12:12;;;;;;;46.80;18.15;;;;;;;7.42;87.40;99619.59;4978668;28;20060;-86
2023/04/21 01:14:39;;;;;;;43.17;17.98;;;;;;;7.36;87.73;99624.41;4980702;28;20438;-86
2023/04/21 01:17:09;;;;;;;46.85;17.33;;;;;;;7.35;87.43;99617.44;4998262;28;20092;-86
2023/04/21 01:19:39;;;;;;;46.03;17.23;;;;;;;7.30;87.21;99613.47;4985063;28;20083;-85
2023/04/21 01:22:12;;;;;;;46.47;18.30;;;;;;;7.40;86.79;99625.00;4993236;28;20049;-86
2023/04/21 01:24:44;;;;;;;45.53;17.65;;;;;;;7.35;86.91;99629.78;4982331;28;20574;-86
2023/04/21 01:27:13;;;;;;;44.53;18.75;;;;;;;7.31;87.12;99626.56;4964636;28;20677;-86
2023/04/21 01:29:41;;;;;;;48.08;18.52;;;;;;;7.37;86.78;99628.72;4998080;28;20045;-86
2023/04/21 01:32:11;;;;;;;49.05;17.58;;;;;;;7.35;86.59;99629.78;4973598;28;20045;-86
2023/04/21 01:34:39;;;;;;;45.20;18.27;;;;;;;7.33;87.50;99629.94;4999476;28;20049;-85
2023/04/21 01:37:10;;;;;;;47.70;18.30;;;;;;;7.36;87.53;99626.22;5009502;28;20677;-86
2023/04/21 01:39:38;;;;;;;38.42;17.67;;;;;;;7.37;87.62;99631.34;4997358;28;20472;-85
2023/04/21 01:42:05;;;;;;;47.72;18.02;;;;;;;7.30;88.36;99631.94;5003489;28;20046;-86
2023/04/21 01:44:32;;;;;;;49.78;19.48;;;;;;;7.31;87.49;99631.84;5005230;28;20152;-86
2023/04/21 01:46:59;;;;;;;51.00;18.88;;;;;;;7.34;87.07;99625.47;4991018;28;20049;-85
2023/04/21 01:49:26;;;;;;;50.67;20.38;;;;;;;7.48;86.91;99629.66;4996062;28;20054;-86
2023/04/21 01:51:53;;;;;;;45.83;18.90;;;;;;;7.50;86.73;99631.22;4996681;28;20045;-86
2023/04/21 01:54:20;;;;;;;49.90;20.52;;;;;;;7.49;87.14;99618.16;5011163;28;20347;-85
2023/04/21 01:56:46;;;;;;;42.03;17.55;;;;;;;7.47;87.08;99622.72;4984446;28;20150;-85
2023/04/21 01:59:14;;;;;;;55.58;21.20;;;;;;;7.46;87.27;99627.16;4996382;28;20502;-86
2023/04/21 02:01:41;;;;;;;53.05;20.05;;;;;;;7.43;87.91;99618.63;4968173;28;20046;-86
2023/04/21 02:04:08;;;;;;;52.42;19.83;;;;;;;7.46;87.79;99621.88;4984874;28;20076;-86
2023/04/21 02:06:35;;;;;;;52.83;19.83;;;;;;;7.49;87.84;99634.84;4997889;28;20049;-86
2023/04/21 02:09:05;;;;;;;53.40;20.75;;;;;;;7.44;88.06;99625.59;4980644;28;20391;-86
2023/04/21 02:11:32;;;;;;;49.80;18.83;;;;;;;7.49;87.88;99629.56;4996297;28;20057;-86
2023/04/21 02:13:59;;;;;;;52.15;20.65;;;;;;;7.40;87.84;99627.63;5017488;28;20348;-85
2023/04/21 02:16:26;;;;;;;57.63;19.35;;;;;;;7.45;87.47;99622.00;4996265;28;20168;-86
2023/04/21 02:18:55;;;;;;;54.25;19.20;;;;;;;7.39;87.69;99625.97;4995949;28;21505;-86
2023/04/21 02:21:23;;;;;;;54.38;21.00;;;;;;;7.38;87.98;99619.00;4995972;28;20112;-86
2023/04/21 02:23:50;;;;;;;48.88;20.05;;;;;;;7.31;88.56;99612.53;5001935;28;20049;-86
2023/04/21 02:26:17;;;;;;;53.67;19.90;;;;;;;7.29;89.07;99615.28;5013086;28;20041;-86
2023/04/21 02:28:44;;;;;;;55.30;20.30;;;;;;;7.27;89.49;99619.81;5000409;28;20064;-85
2023/04/21 02:31:14;;;;;;;55.70;20.05;;;;;;;7.30;89.60;99621.38;4999655;28;20053;-86
2023/04/21 02:33:41;;;;;;;58.17;21.45;;;;;;;7.32;89.51;99622.13;5008678;28;20053;-85
2023/04/21 02:36:10;;;;;;;55.50;19.67;;;;;;;7.29;90.15;99625.00;4999335;28;20120;-86
2023/04/21 02:38:37;;;;;;;57.08;21.17;;;;;;;7.31;89.59;99621.28;4987217;28;20060;-86
2023/04/21 02:41:04;;;;;;;57.80;19.42;;;;;;;7.28;89.86;99620.69;5014710;28;20048;-86
2023/04/21 02:43:32;;;;;;;51.53;20.73;;;;;;;7.27;89.94;99622.47;4988821;28;20045;-86
2023/04/21 02:45:59;;;;;;;57.75;21.25;;;;;;;7.30;89.81;99618.75;5020090;28;20403;-86
2023/04/21 02:48:27;;;;;;;63.03;19.42;;;;;;;7.25;90.01;99615.63;4999643;28;20049;-85
2023/04/21 02:50:54;;;;;;;54.17;20.25;;;;;;;7.26;89.78;99610.25;4986000;28;20045;-86
2023/04/21 02:53:21;;;;;;;57.28;20.13;;;;;;;7.25;90.17;99615.63;4987640;28;20062;-85
2023/04/21 02:55:47;;;;;;;54.75;20.55;;;;;;;7.27;90.15;99608.44;4996568;28;20046;-86
2023/04/21 02:58:15;;;;;;;51.88;18.50;;;;;;;7.24;89.94;99608.69;5013629;28;20560;-86
2023/04/21 03:00:42;;;;;;;49.42;18.15;;;;;;;7.26;89.56;99610.25;5001989;28;20061;-86
2023/04/21 03:03:09;;;;;;;50.15;18.60;;;;;;;7.21;89.72;99606.28;4996700;28;20053;-85
2023/04/21 03:05:36;;;;;;;56.83;20.42;;;;;;;7.20;90.36;99615.16;5009056;28;20506;-86
2023/04/21 03:08:02;;;;;;;62.50;21.15;;;;;;;7.24;90.62;99614.78;5004244;28;20087;-85
2023/04/21 03:10:29;;;;;;;72.07;22.40;;;;;;;7.23;90.69;99613.13;5011694;28;20493;-86
2023/04/21 03:12:56;;;;;;;61.75;21.13;;;;;;;7.20;91.08;99612.50;4999245;28;20107;-86
2023/04/21 03:15:23;;;;;;;77.07;21.80;;;;;;;7.19;91.62;99614.31;4970739;28;20060;-86
2023/04/21 03:17:50;;;;;;;72.65;20.27;;;;;;;7.22;90.88;99616.72;5010992;28;20076;-86
2023/04/21 03:20:17;;;;;;;62.95;21.25;;;;;;;7.23;90.71;99614.94;4986281;28;20454;-85
2023/04/21 03:22:44;;;;;;;60.83;21.50;;;;;;;7.20;90.69;99613.38;5001126;28;20045;-85
2023/04/21 03:25:11;;;;;;;59.65;21.17;;;;;;;7.25;91.11;99612.97;5013492;28;20057;-86
2023/04/21 03:27:38;;;;;;;59.85;20.15;;;;;;;7.25;91.90;99623.53;5010220;28;20049;-86
2023/04/21 03:30:05;;;;;;;58.42;20.33;;;;;;;7.23;91.71;99614.94;4995692;28;20077;-86
2023/04/21 03:32:32;;;;;;;57.50;19.20;;;;;;;7.22;91.86;99613.22;4970579;28;20050;-85
2023/04/21 03:34:59;;;;;;;84.00;30.98;;;;;;;7.25;90.83;99618.25;5004060;28;20129;-86
2023/04/21 03:37:26;;;;;;;76.57;32.40;;;;;;;7.22;90.31;99615.88;4983943;28;20049;-86
2023/04/21 03:39:54;;;;;;;62.67;27.40;;;;;;;7.14;89.98;99619.09;4996533;28;20049;-86
2023/04/21 03:42:22;;;;;;;61.47;28.15;;;;;;;7.16;88.68;99612.75;4984812;28;20057;-86
2023/04/21 03:44:49;;;;;;;57.13;23.95;;;;;;;7.15;88.38;99620.81;4986282;28;20092;-85
2023/04/21 03:47:16;;;;;;;55.65;22.70;;;;;;;7.15;88.88;99626.94;5002571;28;20038;-85
2023/04/21 03:49:46;;;;;;;80.70;21.00;;;;;;;7.17;89.54;99624.16;4969201;28;20581;-86
2023/04/21 03:52:13;;;;;;;88.07;20.90;;;;;;;7.16;90.21;99619.84;5010443;28;20045;-87
2023/04/21 03:54:40;;;;;;;107.45;20.13;;;;;;;7.14;90.62;99619.94;4999040;28;20164;-85
2023/04/21 03:57:06;;;;;;;87.15;20.58;;;;;;;7.09;90.38;99614.19;4999809;28;20530;-86
2023/04/21 03:59:33;;;;;;;71.30;20.90;;;;;;;7.11;90.35;99608.78;4980232;28;20054;-86
2023/04/21 04:02:00;;;;;;;72.03;21.27;;;;;;;7.06;90.86;99609.16;5002418;28;20417;-86
2023/04/21 04:04:27;;;;;;;86.10;20.73;;;;;;;7.04;91.14;99611.06;4981202;28;20057;-85
2023/04/21 04:06:54;;;;;;;118.93;21.88;;;;;;;7.10;91.31;99615.88;5008201;28;20410;-85
2023/04/21 04:09:21;;;;;;;62.65;20.35;;;;;;;7.08;91.20;99607.22;4984113;28;20061;-85
2023/04/21 04:11:47;;;;;;;59.13;18.88;;;;;;;7.07;90.96;99610.84;4997311;28;20044;-85
2023/04/21 04:14:14;;;;;;;68.88;22.60;;;;;;;7.00;92.18;99609.63;5007423;28;20048;-85
2023/04/21 04:16:41;;;;;;;58.30;20.45;;;;;;;7.05;92.23;99618.03;5011230;28;20056;-85
2023/04/21 04:19:08;;;;;;;58.72;20.67;;;;;;;7.09;91.75;99613.34;5017773;28;20128;-85
2023/04/21 04:21:36;;;;;;;50.72;19.90;;;;;;;7.01;91.08;99608.66;4999099;28;20422;-85
2023/04/21 04:24:04;;;;;;;62.05;22.35;;;;;;;7.02;91.00;99610.38;5010813;28;20047;-86
2023/04/21 04:26:37;;;;;;;52.58;21.17;;;;;;;7.05;90.43;99606.66;4992060;28;20052;-85
2023/04/21 04:29:04;;;;;;;52.47;19.58;;;;;;;7.09;90.43;99602.78;5000574;28;20053;-85
2023/04/21 04:31:31;;;;;;;66.25;20.65;;;;;;;7.11;90.59;99598.22;4969034;28;20045;-85
2023/04/21 04:33:58;;;;;;;72.22;22.33;;;;;;;7.06;91.09;99593.31;5010199;28;20046;-85
2023/04/21 04:36:27;;;;;;;61.35;20.65;;;;;;;7.12;90.81;99611.31;5021685;28;20129;-85
2023/04/21 04:38:55;;;;;;;59.05;20.98;;;;;;;7.07;91.49;99602.06;5015539;28;20049;-85
2023/04/21 04:41:23;;;;;;;70.55;22.98;;;;;;;7.10;91.63;99607.97;5012155;28;20284;-85
2023/04/21 04:43:49;;;;;;;64.22;22.27;;;;;;;7.07;92.65;99610.84;5007464;28;20048;-85
2023/04/21 04:46:19;;;;;;;56.67;19.33;;;;;;;7.08;92.01;99603.75;4997868;28;20041;-85
2023/04/21 04:48:46;;;;;;;51.80;18.85;;;;;;;7.08;91.68;99607.22;4958663;28;20132;-85
2023/04/21 04:51:13;;;;;;;57.83;19.48;;;;;;;7.06;91.95;99603.03;4968010;28;20115;-86
2023/04/21 04:53:39;;;;;;;58.25;20.10;;;;;;;7.09;91.50;99600.97;4998004;28;22469;-85
2023/04/21 04:56:06;;;;;;;57.65;21.67;;;;;;;7.14;91.19;99609.38;5009351;28;20068;-85
2023/04/21 04:58:33;;;;;;;89.28;23.15;;;;;;;7.11;91.88;99614.06;4999156;28;20407;-86
2023/04/21 05:01:10;;;;;;;69.18;23.25;;;;;;;7.20;91.60;99601.94;5009554;28;20045;-85
2023/04/21 05:03:37;;;;;;;68.07;22.35;;;;;;;7.15;91.60;99600.53;5014521;28;20042;-85
2023/04/21 05:06:04;;;;;;;63.97;22.35;;;;;;;7.16;91.33;99604.81;4981315;28;20042;-86
2023/04/21 05:08:31;;;;;;;63.03;21.77;;;;;;;7.18;91.18;99607.38;5011831;28;20049;-85
2023/04/21 05:10:57;;;;;;;58.22;19.58;;;;;;;7.13;91.26;99620.91;4997245;28;20058;-85
2023/04/21 05:13:24;;;;;;;56.53;22.27;;;;;;;7.19;91.29;99624.88;4997894;28;20052;-85
2023/04/21 05:15:58;;;;;;;62.63;22.73;;;;;;;7.17;91.90;99627.66;4998584;28;20053;-86
2023/04/21 05:18:25;;;;;;;62.97;21.05;;;;;;;7.29;91.11;99632.94;4999487;28;20050;-86
2023/04/21 05:20:52;;;;;;;65.07;23.05;;;;;;;7.22;91.33;99627.28;5000055;28;20045;-86
2023/04/21 05:23:19;;;;;;;70.82;23.25;;;;;;;7.25;91.63;99627.06;5000009;28;20516;-86
2023/04/21 05:25:46;;;;;;;64.95;23.00;;;;;;;7.24;91.42;99635.09;5012208;28;20049;-84
2023/04/21 05:28:14;;;;;;;72.78;23.05;;;;;;;7.30;90.84;99642.50;4998049;28;20076;-86
2023/04/21 05:30:40;;;;;;;72.88;23.45;;;;;;;7.29;91.21;99639.03;5003689;28;20053;-86
2023/04/21 05:33:08;;;;;;;79.47;25.25;;;;;;;7.28;91.06;99637.38;4983201;28;20113;-85
2023/04/21 05:35:35;;;;;;;69.43;23.85;;;;;;;7.28;91.05;99637.38;5004388;28;20041;-86
2023/04/21 05:38:04;;;;;;;78.07;24.52;;;;;;;7.21;91.65;99643.25;5004890;28;20533;-86
2023/04/21 05:40:31;;;;;;;87.22;26.98;;;;;;;7.22;91.35;99640.47;4995043;28;20069;-85
2023/04/21 05:42:57;;;;;;;85.43;27.73;;;;;;;7.23;91.46;99646.63;4969390;28;20716;-86
2023/04/21 05:45:24;;;;;;;84.35;27.10;;;;;;;7.24;92.18;99648.28;4986983;28;20510;-86
2023/04/21 05:47:51;;;;;;;86.90;28.08;;;;;;;7.27;91.75;99646.25;4964806;28;20042;-86
2023/04/21 05:50:18;;;;;;;91.47;24.95;;;;;;;7.25;91.65;99647.31;4996490;28;20506;-86
2023/04/21 05:52:45;;;;;;;90.70;28.20;;;;;;;7.32;91.12;99646.72;5016281;28;20099;-86
2023/04/21 05:55:12;;;;;;;84.32;25.92;;;;;;;7.37;90.87;99654.28;4981436;28;20348;-86
2023/04/21 05:57:44;;;;;;;87.90;28.30;;;;;;;7.35;91.08;99658.84;4999561;28;20135;-85
2023/04/21 06:00:11;;;;;;;82.53;27.10;;;;;;;7.27;90.96;99656.81;4994072;28;20584;-87
2023/04/21 06:02:38;;;;;;;82.03;25.38;;;;;;;7.34;90.62;99660.66;4998422;28;20049;-86
2023/04/21 06:05:06;;;;;;;82.45;24.52;;;;;;;7.34;90.51;99657.19;4995736;28;20046;-87
2023/04/21 06:07:36;;;;;;;80.05;25.63;;;;;;;7.40;90.59;99664.63;4985320;28;20808;-87
2023/04/21 06:10:03;;;;;;;80.03;24.65;;;;;;;7.33;90.70;99650.22;4979548;28;20345;-87
2023/04/21 06:12:29;;;;;;;82.85;24.52;;;;;;;7.37;91.06;99657.78;4982007;28;20054;-87
2023/04/21 06:14:56;;;;;;;83.80;28.05;;;;;;;7.37;90.92;99649.00;4983394;28;20042;-87
2023/04/21 06:17:23;;;;;;;87.28;26.83;;;;;;;7.32;91.29;99659.94;4993945;28;20141;-86
2023/04/21 06:19:52;;;;;;;92.50;27.90;;;;;;;7.36;91.37;99664.03;5014114;28;20053;-87
2023/04/21 06:22:19;;;;;;;102.95;28.63;;;;;;;7.39;91.37;99658.50;5002072;28;20052;-86
2023/04/21 06:24:46;;;;;;;94.30;28.70;;;;;;;7.47;91.58;99655.25;4999876;28;20459;-87
2023/04/21 06:27:13;;;;;;;91.28;27.98;;;;;;;7.49;91.29;99663.91;4999709;28;20148;-87
2023/04/21 06:29:43;;;;;;;93.43;27.05;;;;;;;7.51;91.30;99659.34;5002232;28;20053;-85
2023/04/21 06:32:11;;;;;;;86.65;27.00;;;;;;;7.60;91.50;99668.34;5006742;28;20049;-85
2023/04/21 06:34:38;;;;;;;83.35;27.20;;;;;;;7.63;91.08;99654.88;4999381;28;20499;-85
2023/04/21 06:37:05;;;;;;;74.72;24.52;;;;;;;7.64;91.38;99656.56;5000381;28;20124;-86
2023/04/21 06:39:32;;;;;;;83.82;27.63;;;;;;;7.64;91.09;99646.00;4995457;28;20132;-86
2023/04/21 06:41:59;;;;;;;82.28;27.45;;;;;;;7.64;91.28;99648.66;4990920;28;20048;-85
2023/04/21 06:44:27;;;;;;;87.55;26.95;;;;;;;7.60;91.31;99650.69;4997589;28;20041;-85
2023/04/21 06:46:53;;;;;;;88.72;27.10;;;;;;;7.52;91.13;99644.34;4996611;28;20044;-86
2023/04/21 06:49:20;;;;;;;111.13;28.42;;;;;;;7.51;91.64;99658.50;5009179;28;20097;-86
2023/04/21 06:51:47;;;;;;;82.82;26.90;;;;;;;7.50;91.66;99660.28;4998631;28;20056;-86
2023/04/21 06:54:15;;;;;;;87.03;29.48;;;;;;;7.56;91.31;99656.34;4998846;28;20043;-86
2023/04/21 06:56:41;;;;;;;93.97;28.33;;;;;;;7.61;91.45;99657.66;4998793;28;20564;-86
2023/04/21 06:59:09;;;;;;;85.47;26.88;;;;;;;7.61;91.62;99655.03;5015189;28;20062;-86
2023/04/21 07:01:37;;;;;;;80.80;25.55;;;;;;;7.75;90.71;99653.06;5000700;28;20050;-85
2023/04/21 07:04:04;;;;;;;75.60;24.52;;;;;;;7.75;90.41;99640.69;4981102;28;20073;-85
2023/04/21 07:06:32;;;;;;;84.68;25.90;;;;;;;7.78;90.34;99643.09;5013733;28;20077;-86
2023/04/21 07:08:59;;;;;;;80.65;25.95;;;;;;;7.76;90.64;99633.59;5017830;28;20041;-86
2023/04/21 07:11:27;;;;;;;76.93;26.45;;;;;;;7.82;90.74;99647.19;5010930;28;20056;-86
2023/04/21 07:13:54;;;;;;;94.53;28.60;;;;;;;7.76;91.04;99633.59;5012353;28;20042;-85
2023/04/21 07:16:23;;;;;;;88.47;28.98;;;;;;;7.83;90.81;99619.75;4988526;28;20057;-85
2023/04/21 07:18:50;;;;;;;86.78;29.83;;;;;;;7.87;91.08;99620.38;5017249;28;20060;-86
2023/04/21 07:21:16;;;;;;;90.25;26.92;;;;;;;7.97;90.94;99636.34;5011441;28;20064;-86
2023/04/21 07:23:43;;;;;;;94.07;27.77;;;;;;;8.09;90.72;99642.44;5016263;28;20045;-85
2023/04/21 07:26:10;;;;;;;79.50;27.10;;;;;;;8.13;90.98;99636.78;5000326;28;20115;-87
2023/04/21 07:28:39;;;;;;;95.97;30.33;;;;;;;8.20;90.86;99630.03;5003834;28;20234;-86
2023/04/21 07:31:06;;;;;;;102.07;30.88;;;;;;;8.25;90.96;99629.66;5018152;28;20054;-85
2023/04/21 07:33:33;;;;;;;93.88;30.02;;;;;;;8.24;90.53;99628.81;5015366;28;20042;-85
2023/04/21 07:36:00;;;;;;;85.30;27.27;;;;;;;8.27;90.55;99638.31;4996997;28;20072;-86
2023/04/21 07:38:26;;;;;;;89.32;29.85;;;;;;;8.28;90.83;99634.69;5003982;28;20062;-86
2023/04/21 07:40:54;;;;;;;88.47;27.67;;;;;;;8.32;90.56;99625.53;4994309;28;20607;-86
2023/04/21 07:43:21;;;;;;;97.10;30.58;;;;;;;8.33;90.47;99621.91;5007674;28;20060;-86
2023/04/21 07:45:47;;;;;;;96.30;29.65;;;;;;;8.37;90.29;99619.84;4996510;28;20048;-87
2023/04/21 07:48:14;;;;;;;91.82;30.50;;;;;;;8.42;90.08;99613.25;5001648;28;20518;-86
2023/04/21 07:50:41;;;;;;;97.80;28.35;;;;;;;8.46;90.34;99613.81;5000050;28;20068;-86
2023/04/21 07:53:08;;;;;;;102.85;31.73;;;;;;;8.43;90.18;99592.94;5000334;28;20060;-86
2023/04/21 07:55:36;;;;;;;98.40;30.75;;;;;;;8.46;90.54;99603.25;5012031;28;20050;-86
2023/04/21 07:58:03;;;;;;;115.10;34.58;;;;;;;8.47;90.23;99597.84;4962186;28;20128;-87
2023/04/21 08:00:30;;;;;;;107.88;30.70;;;;;;;8.52;89.98;99609.81;4986414;28;20042;-86
2023/04/21 08:02:57;;;;;;;109.95;32.67;;;;;;;8.55;90.24;99605.13;5009573;28;20708;-86
2023/04/21 08:05:24;;;;;;;102.63;32.50;;;;;;;8.60;89.84;99596.78;5006804;28;20789;-87
2023/04/21 08:07:57;;;;;;;98.57;32.10;;;;;;;8.63;90.03;99599.19;5003280;28;20045;-87
2023/04/21 08:10:24;;;;;;;104.38;33.22;;;;;;;8.64;90.12;99591.09;4984909;28;20072;-87
2023/04/21 08:12:50;;;;;;;107.47;30.42;;;;;;;8.71;90.08;99590.59;5012563;28;20080;-87
2023/04/21 08:15:17;;;;;;;106.07;31.83;;;;;;;8.77;90.15;99596.19;4972356;28;20236;-87
2023/04/21 08:17:44;;;;;;;104.72;31.30;;;;;;;8.77;90.30;99603.31;4999184;28;20047;-87
2023/04/21 08:20:11;;;;;;;101.65;31.38;;;;;;;8.80;90.31;99595.97;4998175;28;20048;-87
2023/04/21 08:22:38;;;;;;;107.47;31.33;;;;;;;8.88;90.53;99603.25;5000240;28;20052;-87
2023/04/21 08:25:06;;;;;;;111.72;31.58;;;;;;;8.91;90.55;99590.59;4982004;28;20739;-87
2023/04/21 08:27:32;;;;;;;122.47;31.52;;;;;;;8.93;90.06;99593.13;5004645;28;20490;-87
2023/04/21 08:29:59;;;;;;;109.57;31.65;;;;;;;8.98;90.11;99592.69;4981191;28;20498;-87
2023/04/21 08:32:26;;;;;;;107.28;32.42;;;;;;;8.96;90.29;99579.59;5010797;28;20120;-87
2023/04/21 08:34:53;;;;;;;103.32;31.65;;;;;;;9.01;89.82;99585.34;5008955;28;20375;-87
2023/04/21 08:37:20;;;;;;;106.78;30.15;;;;;;;9.05;90.24;99588.56;4984330;28;20066;-87
2023/04/21 08:39:52;;;;;;;108.90;32.17;;;;;;;9.07;89.99;99595.41;4983786;28;20053;-87
2023/04/21 08:42:19;;;;;;;98.13;26.67;;;;;;;9.09;90.16;99592.63;4985690;28;20057;-86
2023/04/21 08:44:46;;;;;;;106.22;29.05;;;;;;;9.09;90.59;99582.88;5007916;28;20053;-87
2023/04/21 08:47:14;;;;;;;90.70;28.42;;;;;;;9.17;90.19;99587.50;4985665;28;20551;-86
2023/04/21 08:49:43;;;;;;;112.18;31.55;;;;;;;9.23;90.39;99584.31;5005323;28;20053;-86
2023/04/21 08:52:12;;;;;;;108.65;33.70;;;;;;;9.28;91.05;99575.97;5005881;28;20045;-86
2023/04/21 08:54:41;;;;;;;97.63;28.70;;;;;;;9.35;90.95;99583.25;5014130;28;20053;-85
2023/04/21 08:57:08;;;;;;;96.43;29.73;;;;;;;9.44;90.75;99580.75;4989574;28;20068;-85
2023/04/21 08:59:41;;;;;;;108.28;28.83;;;;;;;9.51;90.46;99581.91;4989392;28;20430;-86
2023/04/21 09:02:16;;;;;;;99.70;30.88;;;;;;;9.56;90.59;99585.81;4998700;28;20064;-85
2023/04/21 09:04:45;;;;;;;85.05;27.17;;;;;;;9.61;90.33;99577.47;4994729;28;20381;-85
2023/04/21 09:07:32;;;;;;;78.22;24.63;;;;;;;9.63;91.53;99580.00;5003838;28;20104;-85
2023/04/21 09:10:00;;;;;;;99.13;29.48;;;;;;;9.72;90.87;99587.13;4997212;28;20053;-86
2023/04/21 09:12:27;;;;;;;98.50;29.67;;;;;;;9.70;90.64;99581.97;5005032;28;20069;-85
2023/04/21 09:14:56;;;;;;;96.78;30.75;;;;;;;9.75;90.10;99579.75;4999221;28;20152;-85
2023/04/21 09:17:35;;;;;;;87.55;28.17;;;;;;;9.73;91.16;99573.72;4987086;28;20071;-85
2023/04/21 09:20:14;;;;;;;89.93;27.42;;;;;;;9.74;91.45;99583.38;5004704;28;20041;-84
2023/04/21 09:22:40;;;;;;;93.57;29.13;;;;;;;9.75;90.88;99565.66;5011528;28;20041;-86
2023/04/21 09:25:07;;;;;;;94.45;29.17;;;;;;;9.81;90.98;99565.09;5001179;28;20124;-86
2023/04/21 09:27:37;;;;;;;95.43;27.85;;;;;;;9.86;90.58;99568.16;5007643;28;20096;-86
2023/04/21 09:30:06;;;;;;;71.63;23.20;;;;;;;9.93;90.56;99568.47;4983298;28;20068;-85
2023/04/21 09:32:37;;;;;;;92.85;28.38;;;;;;;9.97;90.43;99567.19;4998556;28;20418;-86
2023/04/21 09:35:13;;;;;;;89.20;29.45;;;;;;;9.99;90.38;99562.59;5010539;28;20121;-85
2023/04/21 09:37:43;;;;;;;81.93;26.27;;;;;;;10.04;89.83;99568.31;4997224;28;20140;-85
2023/04/21 09:40:12;;;;;;;77.35;26.80;;;;;;;10.10;89.52;99575.75;4990476;28;20053;-86
2023/04/21 09:42:40;;;;;;;76.00;26.08;;;;;;;10.17;89.39;99576.00;4994371;28;20065;-85
2023/04/21 09:45:10;;;;;;;82.97;26.30;;;;;;;10.19;89.41;99582.00;4981058;28;20041;-87
2023/04/21 09:47:41;;;;;;;71.35;24.92;;;;;;;10.25;89.58;99581.44;5008117;28;20056;-87
2023/04/21 09:50:11;;;;;;;60.40;22.52;;;;;;;10.23;89.44;99578.13;5005455;28;20041;-87
2023/04/21 09:52:39;;;;;;;58.45;21.85;;;;;;;10.25;89.64;99565.53;4994872;28;20052;-87
2023/04/21 09:55:12;;;;;;;61.28;22.38;;;;;;;10.29;89.99;99576.75;5016282;28;20059;-87
2023/04/21 09:57:40;;;;;;;;;;;;;;;10.28;90.97;99575.03;5019437;28;20116;-86
2023/04/21 10:00:09;;;;;;;64.78;22.85;;;;;;;10.42;90.12;99564.84;4982605;28;20159;-86
2023/04/21 10:02:42;;;;;;;56.67;20.70;;;;;;;10.47;89.79;99563.59;4997174;28;20045;-87
2023/04/21 10:05:10;;;;;;;47.17;18.83;;;;;;;10.57;89.61;99567.06;4997783;28;20049;-87
2023/04/21 10:07:38;;;;;;;52.88;19.55;;;;;;;10.63;89.71;99566.50;5011703;28;20498;-87
2023/04/21 10:10:30;;;;;;;50.90;20.98;;;;;;;10.59;89.10;99552.69;5003633;28;20494;-86
2023/04/21 10:12:58;;;;;;;47.57;18.67;;;;;;;10.72;89.17;99556.84;4989875;28;20535;-86
2023/04/21 10:15:31;;;;;;;46.65;17.30;;;;;;;10.75;89.43;99556.56;4994378;28;20104;-87
2023/04/21 10:18:15;;;;;;;48.47;19.42;;;;;;;10.77;89.25;99549.28;4989499;28;20137;-86
2023/04/21 10:20:57;;;;;;;47.55;18.83;;;;;;;10.81;88.91;99540.03;4981852;28;20050;-87
2023/04/21 10:23:43;;;;;;;45.92;19.13;;;;;;;10.81;88.55;99553.31;5001140;28;20076;-87
2023/04/21 10:26:36;;;;;;;45.83;18.05;;;;;;;10.81;88.84;99540.03;4998848;28;20056;-86
2023/04/21 10:29:04;;;;;;;49.83;18.25;;;;;;;10.91;88.72;99546.16;4981953;28;20061;-86
2023/04/21 10:31:34;;;;;;;54.15;21.60;;;;;;;10.89;89.46;99550.78;5003025;28;20062;-86
2023/04/21 10:34:04;;;;;;;50.10;20.30;;;;;;;10.97;88.13;99536.78;4991641;28;20103;-86
2023/04/21 10:36:33;;;;;;;53.10;19.27;;;;;;;10.93;87.96;99540.69;4983933;28;21507;-87
2023/04/21 10:39:04;;;;;;;49.47;22.35;;;;;;;11.00;88.95;99539.97;4996567;28;20064;-86
2023/04/21 10:41:32;;;;;;;51.90;19.27;;;;;;;11.10;88.55;99521.34;4975829;28;20041;-86
2023/04/21 10:44:08;;;;;;;50.08;18.75;;;;;;;11.11;88.65;99528.31;5021694;28;20764;-86
2023/04/21 10:46:45;;;;;;;54.28;22.00;;;;;;;11.16;89.64;99522.56;5007465;28;20492;-87
2023/04/21 10:49:29;;;;;;;56.03;22.70;;;;;;;11.24;89.29;99520.00;5017763;28;20053;-86
2023/04/21 10:52:00;;;;;;;54.42;22.20;;;;;;;11.27;88.52;99520.56;5000145;28;20557;-87
2023/04/21 10:54:45;;;;;;;58.63;23.33;;;;;;;11.28;87.72;99516.91;4986265;28;20045;-86
2023/04/21 10:57:14;;;;;;;57.63;23.00;;;;;;;11.24;87.80;99509.38;4992288;28;20050;-86
2023/04/21 10:59:41;;;;;;;48.85;20.83;;;;;;;11.27;87.69;99512.59;4998486;28;20429;-86
2023/04/21 11:02:13;;;;;;;61.05;23.60;;;;;;;11.27;87.36;99509.94;4969390;28;20556;-86
2023/04/21 11:04:46;;;;;;;61.53;23.03;;;;;;;11.26;87.68;99505.59;4993068;28;20045;-87
2023/04/21 11:07:19;;;;;;;53.97;23.27;;;;;;;11.26;87.87;99507.41;4988420;28;20109;-86
2023/04/21 11:09:47;;;;;;;55.03;24.42;;;;;;;11.29;87.80;99501.78;5001271;28;20407;-86
2023/04/21 11:12:16;;;;;;;53.83;22.30;;;;;;;11.38;87.47;99505.41;5013066;28;20048;-86
2023/04/21 11:14:46;;;;;;;51.60;23.08;;;;;;;11.36;88.45;99515.34;4986616;28;20056;-87
2023/04/21 11:17:18;;;;;;;54.40;22.10;;;;;;;11.38;88.46;99511.53;4996513;28;20045;-87
2023/04/21 11:19:50;;;;;;;58.92;22.95;;;;;;;11.37;88.14;99517.84;5007395;28;20498;-86
2023/04/21 11:22:25;;;;;;;66.35;25.27;;;;;;;11.37;88.11;99519.66;5020148;28;20053;-86
2023/04/21 11:24:55;;;;;;;58.58;24.23;;;;;;;11.35;88.39;99514.50;5013923;28;20104;-86
2023/04/21 11:27:25;;;;;;;64.55;25.63;;;;;;;11.37;89.33;99509.88;5010531;28;20053;-87
2023/04/21 11:29:52;;;;;;;56.53;22.58;;;;;;;11.45;88.31;99509.13;4998753;28;20053;-86